Dover, Kansas
Current Conditions -  °F | °C
As of 8:53 PM on Friday 19 Dec 2014 (Local Time) from KFOE Reporting Station
Overcast Overcast  
Wind Chill: 28°   Ceiling: 1100
Heat Index: 33°   Visibility: 10mi
Dew Point: 28°   Wind: 6mph
Humidity: 82%   Direction: 230°SW
Pressure: 30.2"   Gusts: NA
Location:  38.96°N, 95.94°W
Report Text: KFOE 200253Z 23005KT 10SM OVC011 01/M02 A3020 RMK AO2 SLP235 T00061022 50002
Loading
Personal Weather Stations






























Interactive Weather Map New forecast layout! Learn more

10-Day Weather Forecast

Advertisements
Track Severe Weather on mobile